createdAt,value
2022-11-22T00:02:24.043Z,-64
2022-11-22T00:07:25.326Z,-64
2022-11-22T00:12:26.528Z,-64
2022-11-22T00:17:27.705Z,-64
2022-11-22T00:22:28.852Z,-63
2022-11-22T00:27:30.018Z,-63
2022-11-22T00:32:31.225Z,-63
2022-11-22T00:37:32.431Z,-63
2022-11-22T00:42:33.559Z,-63
2022-11-22T00:47:34.714Z,-63
2022-11-22T00:52:35.847Z,-64
2022-11-22T00:57:37.053Z,-64
2022-11-22T01:02:38.211Z,-64
2022-11-22T01:07:39.413Z,-64
2022-11-22T01:12:40.582Z,-63
2022-11-22T01:17:41.735Z,-63
2022-11-22T01:22:42.891Z,-63
2022-11-22T01:27:44.064Z,-63
2022-11-22T01:32:45.234Z,-63
2022-11-22T01:37:46.438Z,-63
2022-11-22T01:42:47.612Z,-63
2022-11-22T01:47:48.748Z,-63
2022-11-22T01:52:49.874Z,-63
2022-11-22T01:57:51.022Z,-63
2022-11-22T02:02:52.170Z,-63
2022-11-22T02:07:53.299Z,-64
2022-11-22T02:12:54.474Z,-63
2022-11-22T02:17:55.674Z,-63
2022-11-22T02:22:56.843Z,-63
2022-11-22T02:27:58.031Z,-63
2022-11-22T02:32:59.155Z,-63
2022-11-22T02:38:00.396Z,-63
2022-11-22T02:43:01.548Z,-63
2022-11-22T02:48:02.720Z,-63
2022-11-22T02:53:03.916Z,-63
2022-11-22T02:58:05.925Z,-63
2022-11-22T03:03:07.218Z,-63
2022-11-22T03:08:08.411Z,-63
2022-11-22T03:13:09.571Z,-63
2022-11-22T03:18:10.769Z,-63
2022-11-22T03:23:11.974Z,-63
2022-11-22T03:28:13.132Z,-63
2022-11-22T03:33:14.287Z,-63
2022-11-22T03:38:15.484Z,-63
2022-11-22T03:43:16.664Z,-63
2022-11-22T03:48:17.787Z,-62
2022-11-22T03:53:18.965Z,-63
2022-11-22T03:58:20.201Z,-63
2022-11-22T04:03:21.378Z,-63
2022-11-22T04:08:22.571Z,-63
2022-11-22T04:13:43.706Z,-63
2022-11-22T04:18:44.895Z,-63
2022-11-22T04:24:06.030Z,-63
2022-11-22T04:29:10.039Z,-62
2022-11-22T04:34:11.723Z,-63
2022-11-22T04:39:12.918Z,-63
2022-11-22T04:44:32.575Z,-63
2022-11-22T04:49:33.721Z,-63
2022-11-22T04:54:34.937Z,-63
2022-11-22T04:59:36.109Z,-62
2022-11-22T05:04:37.259Z,-63
2022-11-22T05:09:38.443Z,-63
2022-11-22T05:14:39.583Z,-65
2022-11-22T05:19:43.694Z,-63
2022-11-22T05:24:48.988Z,-66
2022-11-22T05:29:50.185Z,-64
2022-11-22T05:34:51.385Z,-63
2022-11-22T05:39:52.512Z,-63
2022-11-22T05:44:53.711Z,-63
2022-11-22T05:49:54.889Z,-64
2022-11-22T05:54:56.034Z,-63
2022-11-22T05:59:57.235Z,-63
2022-11-22T06:04:58.401Z,-63
2022-11-22T06:09:59.590Z,-63
2022-11-22T06:15:00.970Z,-63
2022-11-22T06:20:06.255Z,-62
2022-11-22T06:25:07.976Z,-65
2022-11-22T06:30:09.218Z,-63
2022-11-22T06:35:10.386Z,-63
2022-11-22T06:40:12.330Z,-63
2022-11-22T06:45:13.506Z,-63
2022-11-22T06:50:20.328Z,-63
2022-11-22T06:55:49.109Z,-63
2022-11-22T07:00:44.008Z,-63
2022-11-22T07:05:45.123Z,-65
2022-11-22T07:10:46.282Z,-63
2022-11-22T07:15:47.452Z,-63
2022-11-22T07:20:48.667Z,-63
2022-11-22T07:25:49.862Z,-63
2022-11-22T07:30:50.987Z,-63
2022-11-22T07:35:52.162Z,-63
2022-11-22T07:40:53.306Z,-63
2022-11-22T07:45:54.466Z,-63
2022-11-22T07:50:55.654Z,-63
2022-11-22T07:55:57.610Z,-64
2022-11-22T08:00:58.813Z,-63
2022-11-22T08:06:00.447Z,-64
2022-11-22T08:11:01.598Z,-63
2022-11-22T08:16:05.525Z,-63
2022-11-22T08:21:07.238Z,-63
2022-11-22T08:26:08.403Z,-63
2022-11-22T08:31:10.274Z,-63
2022-11-22T08:36:11.451Z,-63
2022-11-22T08:41:12.660Z,-63
2022-11-22T08:46:13.814Z,-63
2022-11-22T08:51:14.958Z,-64
2022-11-22T08:56:16.137Z,-63
2022-11-22T09:01:17.418Z,-63
2022-11-22T09:11:39.960Z,-63
2022-11-22T09:16:41.101Z,-63
2022-11-22T09:21:42.274Z,-63
2022-11-22T09:26:43.414Z,-63
2022-11-22T09:31:44.668Z,-63
2022-11-22T09:36:45.866Z,-63
2022-11-22T09:41:47.009Z,-63
2022-11-22T09:46:48.154Z,-63
2022-11-22T09:51:49.714Z,-62
2022-11-22T09:56:50.913Z,-62
2022-11-22T10:01:52.177Z,-63
2022-11-22T10:06:53.341Z,-63
2022-11-22T10:11:54.564Z,-63
2022-11-22T10:16:55.699Z,-62
2022-11-22T10:21:56.855Z,-62
2022-11-22T10:26:58.295Z,-62
2022-11-22T10:31:59.471Z,-63
2022-11-22T10:37:00.702Z,-62
2022-11-22T10:42:01.874Z,-62
2022-11-22T10:47:03.110Z,-62
2022-11-22T10:52:04.367Z,-62
2022-11-22T10:57:05.567Z,-62
2022-11-22T11:02:06.786Z,-65
2022-11-22T11:07:12.528Z,-62
2022-11-22T11:12:14.074Z,-62
2022-11-22T11:17:15.232Z,-62
2022-11-22T11:22:17.465Z,-62
2022-11-22T11:27:21.643Z,-62
2022-11-22T11:32:22.823Z,-63
2022-11-22T11:37:24.068Z,-62
2022-11-22T11:42:25.304Z,-63
2022-11-22T11:47:26.545Z,-63
2022-11-22T11:52:29.743Z,-62
2022-11-22T11:57:30.919Z,-64
2022-11-22T12:02:34.231Z,-63
2022-11-22T12:07:35.497Z,-62
2022-11-22T12:12:36.697Z,-62
2022-11-22T12:17:37.933Z,-62
2022-11-22T12:22:54.465Z,-62
2022-11-22T12:27:55.682Z,-62
2022-11-22T12:32:56.851Z,-65
2022-11-22T12:37:58.008Z,-63
2022-11-22T12:42:59.170Z,-63
2022-11-22T12:48:00.333Z,-64
2022-11-22T12:53:01.559Z,-66
2022-11-22T12:58:02.715Z,-66
2022-11-22T13:03:03.882Z,-66
2022-11-22T13:08:05.109Z,-67
2022-11-22T13:13:06.297Z,-67
2022-11-22T13:18:07.479Z,-67
2022-11-22T13:23:08.739Z,-66
2022-11-22T13:28:09.882Z,-63
2022-11-22T13:33:11.035Z,-63
2022-11-22T13:38:12.230Z,-66
2022-11-22T13:43:17.872Z,-66
2022-11-22T13:48:23.026Z,-66
2022-11-22T13:53:24.280Z,-66
2022-11-22T13:58:25.490Z,-66
2022-11-22T14:03:26.714Z,-66
2022-11-22T14:08:28.027Z,-64
2022-11-22T14:13:29.378Z,-63
2022-11-22T14:18:30.613Z,-64
2022-11-22T14:23:32.177Z,-66
2022-11-22T14:28:33.346Z,-65
2022-11-22T14:33:34.499Z,-65
2022-11-22T14:38:35.731Z,-64
2022-11-22T14:43:36.910Z,-66
2022-11-22T14:48:38.082Z,-67
2022-11-22T14:53:39.276Z,-65
2022-11-22T14:58:40.475Z,-67
2022-11-22T15:03:41.858Z,-64
2022-11-22T15:09:16.585Z,-66
2022-11-22T15:14:04.165Z,-66
2022-11-22T16:02:01.598Z,-65
2022-11-22T16:07:02.997Z,-66
2022-11-22T16:12:04.674Z,-66
2022-11-22T16:17:05.854Z,-66
2022-11-22T16:22:07.056Z,-66
2022-11-22T16:27:08.229Z,-66
2022-11-22T16:32:09.401Z,-66
2022-11-22T16:37:10.582Z,-65
2022-11-22T16:42:11.767Z,-67
2022-11-22T16:47:12.942Z,-64
2022-11-22T16:52:14.121Z,-66
2022-11-22T16:57:15.291Z,-66
2022-11-22T17:02:16.538Z,-66
2022-11-22T17:07:17.705Z,-66
2022-11-22T17:12:18.960Z,-66
2022-11-22T17:17:20.246Z,-66
2022-11-22T17:22:21.487Z,-67
2022-11-22T17:27:22.672Z,-67
2022-11-22T17:32:24.922Z,-67
2022-11-22T17:37:29.275Z,-66
2022-11-22T17:42:30.453Z,-63
2022-11-22T17:47:32.343Z,-63
2022-11-22T17:52:33.540Z,-65
2022-11-22T17:57:36.107Z,-66
2022-11-22T18:02:37.468Z,-65
2022-11-22T18:07:39.106Z,-65
2022-11-22T18:12:58.696Z,-66
2022-11-22T18:18:01.426Z,-66
2022-11-22T18:23:02.613Z,-65
2022-11-22T18:28:03.806Z,-66
2022-11-22T18:33:04.971Z,-65
2022-11-22T18:38:06.158Z,-65
2022-11-22T18:43:07.406Z,-67
2022-11-22T18:48:08.573Z,-65
2022-11-22T18:53:09.724Z,-66
2022-11-22T18:58:10.921Z,-68
2022-11-22T19:03:12.075Z,-65
2022-11-22T19:08:13.464Z,-68
2022-11-22T19:13:14.719Z,-68
2022-11-22T19:18:16.784Z,-68
2022-11-22T19:23:18.034Z,-65
2022-11-22T19:28:19.227Z,-65
2022-11-22T19:33:20.523Z,-65
2022-11-22T19:38:21.700Z,-69
2022-11-22T19:43:22.900Z,-69
2022-11-22T19:48:24.054Z,-65
2022-11-22T19:53:25.299Z,-64
2022-11-22T19:58:26.450Z,-64
2022-11-22T20:03:27.598Z,-65
2022-11-22T20:08:28.858Z,-64
2022-11-22T20:13:30.049Z,-67
2022-11-22T20:18:31.235Z,-68
2022-11-22T20:23:32.480Z,-68
2022-11-22T20:28:33.623Z,-68
2022-11-22T20:33:35.140Z,-67
2022-11-22T20:38:46.160Z,-67
2022-11-22T20:43:47.438Z,-67
2022-11-22T20:48:53.282Z,-68
2022-11-22T20:53:54.487Z,-68
2022-11-22T20:58:55.705Z,-67
2022-11-22T21:03:56.938Z,-68
2022-11-22T21:08:58.104Z,-68
2022-11-22T21:13:59.336Z,-68
2022-11-22T21:19:01.354Z,-67
2022-11-22T21:24:02.610Z,-68
2022-11-22T21:29:04.771Z,-66
2022-11-22T21:34:05.947Z,-66
2022-11-22T21:39:07.099Z,-64
2022-11-22T21:44:08.301Z,-64
2022-11-22T21:49:09.478Z,-64
2022-11-22T21:54:10.686Z,-65
2022-11-22T21:59:11.870Z,-64
2022-11-22T22:04:13.066Z,-68
2022-11-22T22:09:14.206Z,-66
2022-11-22T22:14:15.414Z,-65
2022-11-22T22:19:16.531Z,-65
2022-11-22T22:24:17.681Z,-65
2022-11-22T22:29:18.853Z,-65
2022-11-22T22:34:20.025Z,-65
2022-11-22T22:39:21.184Z,-64
2022-11-22T22:44:22.389Z,-64
2022-11-22T22:49:23.519Z,-64
2022-11-22T22:54:24.690Z,-64
2022-11-22T22:59:25.834Z,-64
2022-11-22T23:04:27.035Z,-64
2022-11-22T23:09:28.244Z,-64
2022-11-22T23:14:32.378Z,-64
2022-11-22T23:19:33.834Z,-64
2022-11-22T23:24:35.302Z,-64
2022-11-22T23:29:36.460Z,-67
2022-11-22T23:34:37.583Z,-64
2022-11-22T23:39:38.766Z,-64
2022-11-22T23:44:39.918Z,-64
2022-11-22T23:49:41.075Z,-64
2022-11-22T23:54:42.224Z,-64
2022-11-22T23:59:43.406Z,-64
